sensor_id;sensor_type;location;lat;lon;timestamp;pressure;altitude;pressure_sealevel;temperature;humidity
51249;BME280;39642;47.556;18.728;2023-07-31T00:09:36;99348.78;;;24.73;56.48
51249;BME280;39642;47.556;18.728;2023-07-31T00:12:02;99352.28;;;24.74;56.45
51249;BME280;39642;47.556;18.728;2023-07-31T00:14:28;99348.78;;;24.73;56.46
51249;BME280;39642;47.556;18.728;2023-07-31T00:16:54;99351.44;;;24.73;56.41
51249;BME280;39642;47.556;18.728;2023-07-31T00:19:19;99356.78;;;24.73;56.41
51249;BME280;39642;47.556;18.728;2023-07-31T00:21:45;99345.28;;;24.73;56.41
51249;BME280;39642;47.556;18.728;2023-07-31T00:24:11;99353.28;;;24.73;56.39
51249;BME280;39642;47.556;18.728;2023-07-31T00:26:37;99351.44;;;24.73;56.37
51249;BME280;39642;47.556;18.728;2023-07-31T00:29:03;99350.59;;;24.73;56.33
51249;BME280;39642;47.556;18.728;2023-07-31T00:31:29;99354.22;;;24.72;56.33
51249;BME280;39642;47.556;18.728;2023-07-31T00:33:54;99355.94;;;24.73;56.33
51249;BME280;39642;47.556;18.728;2023-07-31T00:36:20;99353.28;;;24.73;56.32
51249;BME280;39642;47.556;18.728;2023-07-31T00:38:46;99349.78;;;24.72;56.31
51249;BME280;39642;47.556;18.728;2023-07-31T00:41:12;99348.06;;;24.71;56.29
51249;BME280;39642;47.556;18.728;2023-07-31T00:43:38;99356.88;;;24.72;56.29
51249;BME280;39642;47.556;18.728;2023-07-31T00:46:04;99349.88;;;24.71;56.29
51249;BME280;39642;47.556;18.728;2023-07-31T00:48:30;99343.72;;;24.70;56.28
51249;BME280;39642;47.556;18.728;2023-07-31T00:50:56;99343.72;;;24.70;56.27
51249;BME280;39642;47.556;18.728;2023-07-31T00:53:22;99335.72;;;24.70;56.27
51249;BME280;39642;47.556;18.728;2023-07-31T00:55:48;99341.19;;;24.69;56.29
51249;BME280;39642;47.556;18.728;2023-07-31T00:58:14;99352.66;;;24.69;56.29
51249;BME280;39642;47.556;18.728;2023-07-31T01:00:40;99351.00;;;24.68;56.27
51249;BME280;39642;47.556;18.728;2023-07-31T01:03:06;99352.81;;;24.68;56.27
51249;BME280;39642;47.556;18.728;2023-07-31T01:11:41;99361.75;;;24.67;56.22
51249;BME280;39642;47.556;18.728;2023-07-31T01:14:08;99357.28;;;24.67;56.18
51249;BME280;39642;47.556;18.728;2023-07-31T01:16:34;99357.41;;;24.66;56.21
51249;BME280;39642;47.556;18.728;2023-07-31T01:19:00;99355.59;;;24.66;56.20
51249;BME280;39642;47.556;18.728;2023-07-31T01:27:02;99348.72;;;24.64;56.12
51249;BME280;39642;47.556;18.728;2023-07-31T01:29:43;99346.88;;;24.64;56.12
51249;BME280;39642;47.556;18.728;2023-07-31T01:32:11;99346.03;;;24.64;56.08
51249;BME280;39642;47.556;18.728;2023-07-31T01:34:38;99346.78;;;24.66;56.04
51249;BME280;39642;47.556;18.728;2023-07-31T01:37:05;99338.91;;;24.64;56.00
51249;BME280;39642;47.556;18.728;2023-07-31T01:39:31;99342.41;;;24.65;55.95
51249;BME280;39642;47.556;18.728;2023-07-31T01:41:57;99350.38;;;24.65;55.90
51249;BME280;39642;47.556;18.728;2023-07-31T01:44:22;99342.41;;;24.65;55.88
51249;BME280;39642;47.556;18.728;2023-07-31T01:46:48;99338.06;;;24.64;55.87
51249;BME280;39642;47.556;18.728;2023-07-31T01:49:14;99328.25;;;24.64;55.81
51249;BME280;39642;47.556;18.728;2023-07-31T01:51:40;99325.59;;;24.64;55.74
51249;BME280;39642;47.556;18.728;2023-07-31T01:54:06;99332.75;;;24.64;55.73
51249;BME280;39642;47.556;18.728;2023-07-31T01:56:32;99332.75;;;24.64;55.66
51249;BME280;39642;47.556;18.728;2023-07-31T01:58:58;99331.91;;;24.63;55.62
51249;BME280;39642;47.556;18.728;2023-07-31T02:01:23;99330.91;;;24.64;55.57
51249;BME280;39642;47.556;18.728;2023-07-31T02:03:49;99330.06;;;24.64;55.51
51249;BME280;39642;47.556;18.728;2023-07-31T02:06:15;99331.03;;;24.63;55.39
51249;BME280;39642;47.556;18.728;2023-07-31T02:08:41;99331.03;;;24.63;55.39
51249;BME280;39642;47.556;18.728;2023-07-31T02:11:07;99340.00;;;24.62;55.34
51249;BME280;39642;47.556;18.728;2023-07-31T02:13:33;99335.63;;;24.61;55.34
51249;BME280;39642;47.556;18.728;2023-07-31T02:15:58;99333.97;;;24.60;55.34
51249;BME280;39642;47.556;18.728;2023-07-31T02:18:24;99330.47;;;24.59;55.29
51249;BME280;39642;47.556;18.728;2023-07-31T02:20:51;99328.75;;;24.58;55.21
51249;BME280;39642;47.556;18.728;2023-07-31T02:23:20;99322.47;;;24.59;55.18
51249;BME280;39642;47.556;18.728;2023-07-31T02:25:46;99321.75;;;24.57;55.14
51249;BME280;39642;47.556;18.728;2023-07-31T02:28:12;99326.25;;;24.57;55.12
51249;BME280;39642;47.556;18.728;2023-07-31T02:30:38;99343.03;;;24.57;55.09
51249;BME280;39642;47.556;18.728;2023-07-31T02:33:05;99350.19;;;24.57;54.99
51249;BME280;39642;47.556;18.728;2023-07-31T02:35:31;99352.84;;;24.57;54.91
51249;BME280;39642;47.556;18.728;2023-07-31T02:37:57;99351.16;;;24.56;54.92
51249;BME280;39642;47.556;18.728;2023-07-31T02:40:23;99353.69;;;24.57;54.86
51249;BME280;39642;47.556;18.728;2023-07-31T02:42:49;99342.31;;;24.55;54.81
51249;BME280;39642;47.556;18.728;2023-07-31T02:45:15;99352.13;;;24.55;54.81
51249;BME280;39642;47.556;18.728;2023-07-31T02:47:40;99346.94;;;24.53;54.81
51249;BME280;39642;47.556;18.728;2023-07-31T02:50:06;99351.16;;;24.56;54.74
51249;BME280;39642;47.556;18.728;2023-07-31T02:52:32;99348.59;;;24.54;54.68
51249;BME280;39642;47.556;18.728;2023-07-31T02:54:58;99337.84;;;24.56;54.64
51249;BME280;39642;47.556;18.728;2023-07-31T02:57:24;99336.00;;;24.56;54.57
51249;BME280;39642;47.556;18.728;2023-07-31T02:59:50;99336.00;;;24.56;54.49
51249;BME280;39642;47.556;18.728;2023-07-31T03:02:16;99339.53;;;24.57;54.50
51249;BME280;39642;47.556;18.728;2023-07-31T03:04:42;99340.50;;;24.56;54.46
51249;BME280;39642;47.556;18.728;2023-07-31T03:07:07;99329.84;;;24.56;54.37
51249;BME280;39642;47.556;18.728;2023-07-31T03:09:33;99341.34;;;24.56;54.30
51249;BME280;39642;47.556;18.728;2023-07-31T03:11:59;99342.22;;;24.57;54.30
51249;BME280;39642;47.556;18.728;2023-07-31T03:14:25;99344.00;;;24.56;54.22
51249;BME280;39642;47.556;18.728;2023-07-31T03:16:52;99352.00;;;24.56;54.21
51249;BME280;39642;47.556;18.728;2023-07-31T03:19:18;99354.53;;;24.58;54.17
51249;BME280;39642;47.556;18.728;2023-07-31T03:21:44;99354.66;;;24.56;54.12
51249;BME280;39642;47.556;18.728;2023-07-31T03:24:09;99359.03;;;24.57;54.01
51249;BME280;39642;47.556;18.728;2023-07-31T03:26:38;99363.50;;;24.57;54.00
51249;BME280;39642;47.556;18.728;2023-07-31T03:29:07;99360.97;;;24.55;53.98
51249;BME280;39642;47.556;18.728;2023-07-31T03:31:33;99364.47;;;24.56;53.92
51249;BME280;39642;47.556;18.728;2023-07-31T03:33:59;99369.78;;;24.56;53.99
51249;BME280;39642;47.556;18.728;2023-07-31T03:36:25;99369.78;;;24.56;53.92
51249;BME280;39642;47.556;18.728;2023-07-31T03:38:51;99376.94;;;24.55;53.92
51249;BME280;39642;47.556;18.728;2023-07-31T03:41:17;99368.81;;;24.57;53.84
51249;BME280;39642;47.556;18.728;2023-07-31T03:43:46;99370.63;;;24.56;53.77
51249;BME280;39642;47.556;18.728;2023-07-31T03:46:12;99367.13;;;24.56;53.80
51249;BME280;39642;47.556;18.728;2023-07-31T03:48:38;99371.50;;;24.57;53.77
51249;BME280;39642;47.556;18.728;2023-07-31T03:51:04;99375.94;;;24.56;53.71
51249;BME280;39642;47.556;18.728;2023-07-31T03:53:30;99363.50;;;24.57;53.69
51249;BME280;39642;47.556;18.728;2023-07-31T03:55:56;99364.47;;;24.56;53.69
51249;BME280;39642;47.556;18.728;2023-07-31T03:58:22;99363.50;;;24.57;53.65
51249;BME280;39642;47.556;18.728;2023-07-31T04:00:47;99356.47;;;24.56;53.64
51249;BME280;39642;47.556;18.728;2023-07-31T04:03:13;99368.94;;;24.55;53.62
51249;BME280;39642;47.556;18.728;2023-07-31T04:05:39;99366.28;;;24.55;53.57
51249;BME280;39642;47.556;18.728;2023-07-31T04:08:05;99373.44;;;24.55;53.57
51249;BME280;39642;47.556;18.728;2023-07-31T04:10:31;99373.44;;;24.55;53.57
51249;BME280;39642;47.556;18.728;2023-07-31T04:13:00;99368.94;;;24.55;53.55
51249;BME280;39642;47.556;18.728;2023-07-31T04:15:28;99367.13;;;24.56;53.43
51249;BME280;39642;47.556;18.728;2023-07-31T04:17:54;99369.78;;;24.56;53.47
51249;BME280;39642;47.556;18.728;2023-07-31T04:20:20;99377.78;;;24.56;53.42
51249;BME280;39642;47.556;18.728;2023-07-31T04:22:46;99383.94;;;24.56;53.36
51249;BME280;39642;47.556;18.728;2023-07-31T04:25:11;99384.81;;;24.57;53.36
51249;BME280;39642;47.556;18.728;2023-07-31T04:27:37;99386.47;;;24.58;53.33
51249;BME280;39642;47.556;18.728;2023-07-31T04:30:04;99384.81;;;24.57;53.26
51249;BME280;39642;47.556;18.728;2023-07-31T04:32:30;99388.16;;;24.59;53.26
51249;BME280;39642;47.556;18.728;2023-07-31T04:34:56;99393.63;;;24.57;53.26
51249;BME280;39642;47.556;18.728;2023-07-31T04:37:22;99391.81;;;24.58;53.18
51249;BME280;39642;47.556;18.728;2023-07-31T04:39:47;99397.13;;;24.58;53.14
51249;BME280;39642;47.556;18.728;2023-07-31T04:42:13;99396.12;;;24.59;53.13
51249;BME280;39642;47.556;18.728;2023-07-31T04:44:39;99396.12;;;24.59;53.10
51249;BME280;39642;47.556;18.728;2023-07-31T04:47:05;99396.88;;;24.61;53.06
51249;BME280;39642;47.556;18.728;2023-07-31T04:49:32;99402.19;;;24.61;52.99
51249;BME280;39642;47.556;18.728;2023-07-31T04:51:58;99402.19;;;24.61;53.02
51249;BME280;39642;47.556;18.728;2023-07-31T04:54:24;99408.50;;;24.60;52.98
51249;BME280;39642;47.556;18.728;2023-07-31T04:56:50;99410.16;;;24.61;52.94
51249;BME280;39642;47.556;18.728;2023-07-31T04:59:15;99417.31;;;24.60;52.83
51249;BME280;39642;47.556;18.728;2023-07-31T05:01:41;99413.81;;;24.60;52.82
51249;BME280;39642;47.556;18.728;2023-07-31T05:04:08;99416.47;;;24.60;52.80
51249;BME280;39642;47.556;18.728;2023-07-31T05:06:34;99412.09;;;24.59;52.85
51249;BME280;39642;47.556;18.728;2023-07-31T05:09:00;99417.44;;;24.59;52.80
51249;BME280;39642;47.556;18.728;2023-07-31T05:11:26;99411.16;;;24.60;52.74
51249;BME280;39642;47.556;18.728;2023-07-31T05:13:51;99421.81;;;24.60;52.68
51249;BME280;39642;47.556;18.728;2023-07-31T05:16:17;99421.81;;;24.60;52.63
51249;BME280;39642;47.556;18.728;2023-07-31T05:18:43;99425.31;;;24.60;52.50
51249;BME280;39642;47.556;18.728;2023-07-31T05:21:09;99431.72;;;24.58;52.55
51249;BME280;39642;47.556;18.728;2023-07-31T05:23:35;99432.56;;;24.58;52.48
51249;BME280;39642;47.556;18.728;2023-07-31T05:26:05;99435.13;;;24.60;52.47
51249;BME280;39642;47.556;18.728;2023-07-31T05:28:31;99435.13;;;24.60;52.33
51249;BME280;39642;47.556;18.728;2023-07-31T05:31:04;99441.28;;;24.60;52.23
51249;BME280;39642;47.556;18.728;2023-07-31T05:33:30;99443.94;;;24.60;52.17
51249;BME280;39642;47.556;18.728;2023-07-31T05:35:56;99450.09;;;24.61;52.10
51249;BME280;39642;47.556;18.728;2023-07-31T05:38:22;99441.16;;;24.62;52.05
51249;BME280;39642;47.556;18.728;2023-07-31T05:40:48;99451.81;;;24.62;51.84
51249;BME280;39642;47.556;18.728;2023-07-31T05:43:14;99447.31;;;24.62;51.87
51249;BME280;39642;47.556;18.728;2023-07-31T05:45:42;99441.03;;;24.63;51.72
51249;BME280;39642;47.556;18.728;2023-07-31T05:48:08;99449.88;;;24.64;51.60
51249;BME280;39642;47.556;18.728;2023-07-31T05:50:34;99450.72;;;24.64;51.67
51249;BME280;39642;47.556;18.728;2023-07-31T05:53:00;99449.72;;;24.65;51.61
51249;BME280;39642;47.556;18.728;2023-07-31T05:55:26;99451.44;;;24.66;51.51
51249;BME280;39642;47.556;18.728;2023-07-31T05:57:53;99459.31;;;24.68;51.33
51249;BME280;39642;47.556;18.728;2023-07-31T06:00:18;99456.66;;;24.68;51.29
51249;BME280;39642;47.556;18.728;2023-07-31T06:02:44;99458.31;;;24.69;51.15
51249;BME280;39642;47.556;18.728;2023-07-31T06:05:10;99454.69;;;24.70;51.10
51249;BME280;39642;47.556;18.728;2023-07-31T06:07:36;99457.34;;;24.70;51.04
51249;BME280;39642;47.556;18.728;2023-07-31T06:10:02;99451.06;;;24.71;50.96
51249;BME280;39642;47.556;18.728;2023-07-31T06:12:31;99453.59;;;24.72;50.90
51249;BME280;39642;47.556;18.728;2023-07-31T06:14:57;99447.19;;;24.75;50.91
51249;BME280;39642;47.556;18.728;2023-07-31T06:17:23;99438.34;;;24.75;50.74
51249;BME280;39642;47.556;18.728;2023-07-31T06:19:49;99446.19;;;24.76;50.68
51249;BME280;39642;47.556;18.728;2023-07-31T06:22:15;99445.25;;;24.77;50.65
51249;BME280;39642;47.556;18.728;2023-07-31T06:24:41;99434.59;;;24.77;50.60
51249;BME280;39642;47.556;18.728;2023-07-31T06:27:07;99442.56;;;24.77;50.46
51249;BME280;39642;47.556;18.728;2023-07-31T06:29:33;99430.22;;;24.76;50.30
51249;BME280;39642;47.556;18.728;2023-07-31T06:31:59;99429.25;;;24.77;50.32
51249;BME280;39642;47.556;18.728;2023-07-31T06:34:25;99423.94;;;24.77;50.15
51249;BME280;39642;47.556;18.728;2023-07-31T06:36:51;99423.94;;;24.77;50.23
51249;BME280;39642;47.556;18.728;2023-07-31T06:39:16;99420.41;;;24.77;50.17
51249;BME280;39642;47.556;18.728;2023-07-31T06:41:43;99421.28;;;24.77;50.08
51249;BME280;39642;47.556;18.728;2023-07-31T06:44:10;99418.62;;;24.77;49.98
51249;BME280;39642;47.556;18.728;2023-07-31T06:46:36;99414.25;;;24.76;49.86
51249;BME280;39642;47.556;18.728;2023-07-31T06:49:02;99425.72;;;24.77;49.81
51249;BME280;39642;47.556;18.728;2023-07-31T06:51:28;99419.44;;;24.78;49.81
51249;BME280;39642;47.556;18.728;2023-07-31T06:53:54;99408.81;;;24.78;49.79
51249;BME280;39642;47.556;18.728;2023-07-31T06:56:20;99410.47;;;24.79;49.78
51249;BME280;39642;47.556;18.728;2023-07-31T06:58:46;99405.03;;;24.80;49.65
51249;BME280;39642;47.556;18.728;2023-07-31T07:01:12;99411.19;;;24.81;49.60
51249;BME280;39642;47.556;18.728;2023-07-31T07:03:38;99409.25;;;24.83;49.57
51249;BME280;39642;47.556;18.728;2023-07-31T07:06:04;99414.47;;;24.84;49.46
51249;BME280;39642;47.556;18.728;2023-07-31T07:08:30;99420.63;;;24.85;49.24
51249;BME280;39642;47.556;18.728;2023-07-31T07:10:56;99424.00;;;24.87;49.18
51249;BME280;39642;47.556;18.728;2023-07-31T07:13:22;99420.38;;;24.88;49.17
51249;BME280;39642;47.556;18.728;2023-07-31T07:15:48;99424.63;;;24.90;49.01
51249;BME280;39642;47.556;18.728;2023-07-31T07:18:15;99428.97;;;24.91;49.00
51249;BME280;39642;47.556;18.728;2023-07-31T07:20:46;99435.00;;;24.93;48.85
51249;BME280;39642;47.556;18.728;2023-07-31T07:23:12;99433.19;;;24.94;48.87
51249;BME280;39642;47.556;18.728;2023-07-31T07:25:38;99433.06;;;24.96;48.76
51249;BME280;39642;47.556;18.728;2023-07-31T07:28:04;99426.75;;;24.97;48.64
51249;BME280;39642;47.556;18.728;2023-07-31T07:30:30;99431.97;;;24.98;48.62
51249;BME280;39642;47.556;18.728;2023-07-31T07:32:56;99435.47;;;24.99;48.67
51249;BME280;39642;47.556;18.728;2023-07-31T07:35:21;99436.44;;;24.98;48.62
51249;BME280;39642;47.556;18.728;2023-07-31T07:37:50;99438.13;;;24.99;48.48
51249;BME280;39642;47.556;18.728;2023-07-31T07:40:16;99440.78;;;24.99;48.51
51249;BME280;39642;47.556;18.728;2023-07-31T07:42:42;99444.28;;;24.99;48.48
51249;BME280;39642;47.556;18.728;2023-07-31T07:45:08;99451.31;;;25.00;48.39
51249;BME280;39642;47.556;18.728;2023-07-31T07:47:34;99446.84;;;25.01;48.17
51249;BME280;39642;47.556;18.728;2023-07-31T07:50:00;99451.22;;;25.02;48.01
51249;BME280;39642;47.556;18.728;2023-07-31T07:52:26;99444.91;;;25.03;47.94
51249;BME280;39642;47.556;18.728;2023-07-31T07:54:52;99454.56;;;25.04;48.04
51249;BME280;39642;47.556;18.728;2023-07-31T07:57:18;99445.63;;;25.05;47.82
51249;BME280;39642;47.556;18.728;2023-07-31T07:59:44;99444.63;;;25.06;47.82
51249;BME280;39642;47.556;18.728;2023-07-31T08:02:10;99446.34;;;25.07;47.63
51249;BME280;39642;47.556;18.728;2023-07-31T08:04:36;99450.69;;;25.08;47.55
51249;BME280;39642;47.556;18.728;2023-07-31T08:07:02;99442.56;;;25.09;47.59
51249;BME280;39642;47.556;18.728;2023-07-31T08:09:28;99447.91;;;25.09;47.39
51249;BME280;39642;47.556;18.728;2023-07-31T08:11:54;99456.72;;;25.10;47.51
51249;BME280;39642;47.556;18.728;2023-07-31T08:14:20;99460.22;;;25.10;47.37
51249;BME280;39642;47.556;18.728;2023-07-31T08:16:46;99461.94;;;25.11;47.32
51249;BME280;39642;47.556;18.728;2023-07-31T08:19:11;99458.44;;;25.11;47.25
51249;BME280;39642;47.556;18.728;2023-07-31T08:21:37;99460.13;;;25.12;47.29
51249;BME280;39642;47.556;18.728;2023-07-31T08:24:03;99460.13;;;25.12;47.17
51249;BME280;39642;47.556;18.728;2023-07-31T08:26:29;99468.09;;;25.12;47.23
51249;BME280;39642;47.556;18.728;2023-07-31T08:28:55;99472.47;;;25.13;47.07
51249;BME280;39642;47.556;18.728;2023-07-31T08:31:21;99466.28;;;25.12;47.03
51249;BME280;39642;47.556;18.728;2023-07-31T08:33:47;99468.81;;;25.14;46.96
51249;BME280;39642;47.556;18.728;2023-07-31T08:36:12;99455.50;;;25.14;47.07
51249;BME280;39642;47.556;18.728;2023-07-31T08:38:38;99460.84;;;25.14;46.94
51249;BME280;39642;47.556;18.728;2023-07-31T08:41:04;99467.00;;;25.14;46.98
51249;BME280;39642;47.556;18.728;2023-07-31T08:43:31;99469.66;;;25.14;46.89
51249;BME280;39642;47.556;18.728;2023-07-31T08:45:58;99468.72;;;25.16;46.79
51249;BME280;39642;47.556;18.728;2023-07-31T08:48:25;99462.38;;;25.17;46.83
51249;BME280;39642;47.556;18.728;2023-07-31T08:50:52;99469.53;;;25.16;46.77
51249;BME280;39642;47.556;18.728;2023-07-31T08:53:18;99469.44;;;25.18;46.62
51249;BME280;39642;47.556;18.728;2023-07-31T08:55:45;99459.59;;;25.18;46.60
51249;BME280;39642;47.556;18.728;2023-07-31T08:58:12;99452.56;;;25.17;46.63
51249;BME280;39642;47.556;18.728;2023-07-31T09:00:39;99459.59;;;25.18;46.56
51249;BME280;39642;47.556;18.728;2023-07-31T09:03:13;99455.16;;;25.19;46.42
51249;BME280;39642;47.556;18.728;2023-07-31T09:05:44;99455.25;;;25.17;46.49
51249;BME280;39642;47.556;18.728;2023-07-31T09:08:12;99462.28;;;25.18;46.40
51249;BME280;39642;47.556;18.728;2023-07-31T09:10:45;99456.00;;;25.19;46.36
51249;BME280;39642;47.556;18.728;2023-07-31T09:13:12;99458.66;;;25.19;46.36
51249;BME280;39642;47.556;18.728;2023-07-31T09:15:39;99448.94;;;25.18;46.26
51249;BME280;39642;47.556;18.728;2023-07-31T09:18:06;99453.31;;;25.19;46.25
51249;BME280;39642;47.556;18.728;2023-07-31T09:20:32;99457.69;;;25.20;46.32
51249;BME280;39642;47.556;18.728;2023-07-31T09:23:07;99449.69;;;25.20;46.18
51249;BME280;39642;47.556;18.728;2023-07-31T09:25:34;99452.47;;;25.19;46.13
51249;BME280;39642;47.556;18.728;2023-07-31T09:28:02;99441.81;;;25.19;46.02
51249;BME280;39642;47.556;18.728;2023-07-31T09:30:28;99432.88;;;25.20;46.08
51249;BME280;39642;47.556;18.728;2023-07-31T09:33:05;99431.16;;;25.19;46.11
51249;BME280;39642;47.556;18.728;2023-07-31T09:35:34;99440.88;;;25.20;45.98
51249;BME280;39642;47.556;18.728;2023-07-31T09:38:06;99432.97;;;25.18;45.88
51249;BME280;39642;47.556;18.728;2023-07-31T09:40:37;99439.16;;;25.19;45.90
51249;BME280;39642;47.556;18.728;2023-07-31T09:43:05;99438.28;;;25.18;45.97
51249;BME280;39642;47.556;18.728;2023-07-31T09:45:34;99430.31;;;25.18;45.84
51249;BME280;39642;47.556;18.728;2023-07-31T09:48:02;99432.13;;;25.18;45.79
51249;BME280;39642;47.556;18.728;2023-07-31T09:50:29;99420.59;;;25.17;45.78
51249;BME280;39642;47.556;18.728;2023-07-31T09:52:55;99429.47;;;25.18;45.99
51249;BME280;39642;47.556;18.728;2023-07-31T09:55:21;99431.25;;;25.17;45.62
51249;BME280;39642;47.556;18.728;2023-07-31T09:57:48;99432.97;;;25.18;45.71
51249;BME280;39642;47.556;18.728;2023-07-31T10:00:19;99433.91;;;25.17;45.65
51249;BME280;39642;47.556;18.728;2023-07-31T10:02:48;99431.25;;;25.17;45.45
51249;BME280;39642;47.556;18.728;2023-07-31T10:05:16;99425.94;;;25.17;45.42
51249;BME280;39642;47.556;18.728;2023-07-31T10:07:48;99427.75;;;25.17;45.42
51249;BME280;39642;47.556;18.728;2023-07-31T10:10:15;99433.91;;;25.17;45.44
51249;BME280;39642;47.556;18.728;2023-07-31T10:12:43;99423.25;;;25.17;45.24
51249;BME280;39642;47.556;18.728;2023-07-31T10:15:11;99424.25;;;25.16;45.32
51249;BME280;39642;47.556;18.728;2023-07-31T10:17:37;99413.59;;;25.16;45.24
51249;BME280;39642;47.556;18.728;2023-07-31T10:20:05;99425.09;;;25.17;45.29
51249;BME280;39642;47.556;18.728;2023-07-31T10:22:32;99426.91;;;25.16;45.28
51249;BME280;39642;47.556;18.728;2023-07-31T10:24:59;99422.53;;;25.15;45.09
51249;BME280;39642;47.556;18.728;2023-07-31T10:27:26;99419.88;;;25.15;45.35
51249;BME280;39642;47.556;18.728;2023-07-31T10:29:54;99419.03;;;25.14;45.03
51249;BME280;39642;47.556;18.728;2023-07-31T10:32:21;99423.66;;;25.12;45.17
51249;BME280;39642;47.556;18.728;2023-07-31T10:34:49;99416.53;;;25.13;45.12
51249;BME280;39642;47.556;18.728;2023-07-31T10:37:22;99412.16;;;25.12;44.97
51249;BME280;39642;47.556;18.728;2023-07-31T10:40:02;99413.97;;;25.11;45.04
51249;BME280;39642;47.556;18.728;2023-07-31T10:42:54;99409.59;;;25.10;45.07
51249;BME280;39642;47.556;18.728;2023-07-31T10:45:42;99413.16;;;25.11;44.99
51249;BME280;39642;47.556;18.728;2023-07-31T10:48:17;99411.31;;;25.11;44.96
51249;BME280;39642;47.556;18.728;2023-07-31T10:50:54;99409.59;;;25.10;44.97
51249;BME280;39642;47.556;18.728;2023-07-31T10:53:25;99398.13;;;25.10;44.96
51249;BME280;39642;47.556;18.728;2023-07-31T10:55:52;99399.94;;;25.09;44.91
51249;BME280;39642;47.556;18.728;2023-07-31T10:58:19;99399.09;;;25.09;44.94
51249;BME280;39642;47.556;18.728;2023-07-31T11:00:46;99402.72;;;25.08;44.85
51249;BME280;39642;47.556;18.728;2023-07-31T11:03:17;99401.78;;;25.09;44.89
51249;BME280;39642;47.556;18.728;2023-07-31T11:06:00;99392.06;;;25.08;44.86
51249;BME280;39642;47.556;18.728;2023-07-31T11:08:29;99392.06;;;25.08;44.72
51249;BME280;39642;47.556;18.728;2023-07-31T11:13:47;99403.72;;;25.07;44.77
51249;BME280;39642;47.556;18.728;2023-07-31T11:16:24;99393.91;;;25.07;44.83
51249;BME280;39642;47.556;18.728;2023-07-31T11:18:51;99386.88;;;25.06;44.77
51249;BME280;39642;47.556;18.728;2023-07-31T11:21:20;99378.91;;;25.06;44.65
51249;BME280;39642;47.556;18.728;2023-07-31T11:23:47;99377.19;;;25.05;44.65
51249;BME280;39642;47.556;18.728;2023-07-31T11:26:14;99384.22;;;25.06;44.65
51249;BME280;39642;47.556;18.728;2023-07-31T11:28:40;99373.69;;;25.05;44.86
51249;BME280;39642;47.556;18.728;2023-07-31T11:31:11;99378.03;;;25.06;44.58
51249;BME280;39642;47.556;18.728;2023-07-31T11:33:37;99387.00;;;25.05;44.61
51249;BME280;39642;47.556;18.728;2023-07-31T11:36:03;99387.00;;;25.05;44.52
51249;BME280;39642;47.556;18.728;2023-07-31T11:38:31;99380.84;;;25.04;44.53
51249;BME280;39642;47.556;18.728;2023-07-31T11:41:03;99386.19;;;25.04;44.38
51249;BME280;39642;47.556;18.728;2023-07-31T11:43:30;99378.19;;;25.04;44.40
51249;BME280;39642;47.556;18.728;2023-07-31T11:45:58;99380.84;;;25.04;44.50
51249;BME280;39642;47.556;18.728;2023-07-31T11:48:25;99383.50;;;25.04;44.46
51249;BME280;39642;47.556;18.728;2023-07-31T11:51:00;99384.47;;;25.03;44.38
51249;BME280;39642;47.556;18.728;2023-07-31T11:53:40;99379.12;;;25.03;44.23
51249;BME280;39642;47.556;18.728;2023-07-31T11:56:09;99377.31;;;25.04;44.33
51249;BME280;39642;47.556;18.728;2023-07-31T11:58:38;99375.63;;;25.03;44.24
51249;BME280;39642;47.556;18.728;2023-07-31T12:01:05;99371.16;;;25.03;44.19
51249;BME280;39642;47.556;18.728;2023-07-31T12:03:32;99366.81;;;25.02;44.20
51249;BME280;39642;47.556;18.728;2023-07-31T12:05:59;99357.00;;;25.03;44.17
51249;BME280;39642;47.556;18.728;2023-07-31T12:08:25;99358.81;;;25.02;44.03
51249;BME280;39642;47.556;18.728;2023-07-31T12:10:52;99362.44;;;25.01;44.22
51249;BME280;39642;47.556;18.728;2023-07-31T12:13:23;99354.44;;;25.01;44.17
51249;BME280;39642;47.556;18.728;2023-07-31T12:15:54;99361.59;;;25.01;43.96
51249;BME280;39642;47.556;18.728;2023-07-31T12:18:22;99358.81;;;25.02;43.99
51249;BME280;39642;47.556;18.728;2023-07-31T12:20:58;99357.97;;;25.02;44.00
51249;BME280;39642;47.556;18.728;2023-07-31T12:23:26;99357.09;;;25.01;43.93
51249;BME280;39642;47.556;18.728;2023-07-31T12:28:48;99346.44;;;25.01;43.98
51249;BME280;39642;47.556;18.728;2023-07-31T12:31:15;99337.75;;;24.99;43.72
51249;BME280;39642;47.556;18.728;2023-07-31T12:33:43;99343.94;;;25.00;43.97
51249;BME280;39642;47.556;18.728;2023-07-31T12:36:14;99328.91;;;24.99;43.77
51249;BME280;39642;47.556;18.728;2023-07-31T12:38:41;99327.97;;;25.00;43.78
51249;BME280;39642;47.556;18.728;2023-07-31T12:41:07;99332.41;;;24.99;43.85
51249;BME280;39642;47.556;18.728;2023-07-31T12:43:37;99332.41;;;24.99;43.75
51249;BME280;39642;47.556;18.728;2023-07-31T12:46:04;99330.63;;;25.00;43.89
51249;BME280;39642;47.556;18.728;2023-07-31T12:48:32;99333.28;;;25.00;43.74
51249;BME280;39642;47.556;18.728;2023-07-31T12:50:58;99329.75;;;24.99;43.69
51249;BME280;39642;47.556;18.728;2023-07-31T12:53:23;99327.09;;;24.99;43.54
51249;BME280;39642;47.556;18.728;2023-07-31T12:55:49;99333.28;;;25.00;43.78
51249;BME280;39642;47.556;18.728;2023-07-31T12:58:15;99321.75;;;24.99;43.58
51249;BME280;39642;47.556;18.728;2023-07-31T13:00:41;99323.59;;;24.99;43.71
51249;BME280;39642;47.556;18.728;2023-07-31T13:03:08;99309.44;;;24.98;43.60
51249;BME280;39642;47.556;18.728;2023-07-31T13:05:34;99321.75;;;24.99;43.62
51249;BME280;39642;47.556;18.728;2023-07-31T13:08:00;99315.47;;;25.00;43.54
51249;BME280;39642;47.556;18.728;2023-07-31T13:10:27;99311.09;;;24.99;43.64
51249;BME280;39642;47.556;18.728;2023-07-31T13:12:54;99318.97;;;25.01;43.41
51249;BME280;39642;47.556;18.728;2023-07-31T13:15:20;99312.81;;;25.00;43.49